createdAt,value
2018-12-16T00:00:34.533Z,0.40
2018-12-16T00:01:40.549Z,0.40
2018-12-16T00:02:46.339Z,0.40
2018-12-16T00:03:52.392Z,0.40
2018-12-16T00:04:58.124Z,0.40
2018-12-16T00:06:03.889Z,0.40
2018-12-16T00:07:07.749Z,0.40
2018-12-16T00:08:11.621Z,0.40
2018-12-16T00:09:15.534Z,0.40
2018-12-16T00:10:19.548Z,0.40
2018-12-16T00:11:23.322Z,0.30
2018-12-16T00:12:27.242Z,0.40
2018-12-16T00:13:30.990Z,0.30
2018-12-16T00:14:34.849Z,0.40
2018-12-16T00:15:38.699Z,0.40
2018-12-16T00:16:42.528Z,0.40
2018-12-16T00:17:46.290Z,0.30
2018-12-16T00:18:49.980Z,0.40
2018-12-16T00:19:53.775Z,0.40
2018-12-16T00:20:57.566Z,0.40
2018-12-16T00:22:01.351Z,0.40
2018-12-16T00:23:05.095Z,0.40
2018-12-16T00:24:08.958Z,0.40
2018-12-16T00:25:12.986Z,0.40
2018-12-16T00:26:16.771Z,0.40
2018-12-16T00:27:20.535Z,0.40
2018-12-16T00:28:24.353Z,0.40
2018-12-16T00:29:28.193Z,0.40
2018-12-16T00:30:31.968Z,0.40
2018-12-16T00:31:35.709Z,0.40
2018-12-16T00:32:39.433Z,0.40
2018-12-16T00:33:43.213Z,0.40
2018-12-16T00:34:46.922Z,0.40
2018-12-16T00:35:50.721Z,0.40
2018-12-16T00:36:54.491Z,0.40
2018-12-16T00:37:58.314Z,0.40
2018-12-16T00:39:02.099Z,0.30
2018-12-16T00:40:07.566Z,0.30
2018-12-16T00:41:11.383Z,0.40
2018-12-16T00:42:15.106Z,0.40
2018-12-16T00:43:18.868Z,0.40
2018-12-16T00:44:22.723Z,0.30
2018-12-16T00:45:26.504Z,0.30
2018-12-16T00:46:30.300Z,0.40
2018-12-16T00:47:34.112Z,0.40
2018-12-16T00:48:37.863Z,0.40
2018-12-16T00:49:41.574Z,0.30
2018-12-16T00:50:45.323Z,0.40
2018-12-16T00:51:49.073Z,0.30
2018-12-16T00:52:52.859Z,0.30
2018-12-16T00:53:56.620Z,0.30
2018-12-16T00:55:00.369Z,0.30
2018-12-16T00:56:04.238Z,0.30
2018-12-16T00:57:07.979Z,0.30
2018-12-16T00:58:11.669Z,0.30
2018-12-16T00:59:15.462Z,0.30
2018-12-16T01:00:19.210Z,0.30
2018-12-16T01:01:22.962Z,0.30
2018-12-16T01:02:42.046Z,0.30
2018-12-16T01:03:45.836Z,0.30
2018-12-16T01:04:49.823Z,0.30
2018-12-16T01:05:53.561Z,0.30
2018-12-16T01:06:57.326Z,0.30
2018-12-16T01:08:01.066Z,0.30
2018-12-16T01:09:06.638Z,0.30
2018-12-16T01:10:12.818Z,0.30
2018-12-16T01:11:16.526Z,0.30
2018-12-16T01:12:20.399Z,0.30
2018-12-16T01:13:24.132Z,0.30
2018-12-16T01:14:27.937Z,0.30
2018-12-16T01:15:31.648Z,0.30
2018-12-16T01:16:35.421Z,0.30
2018-12-16T01:17:39.191Z,0.30
2018-12-16T01:18:42.901Z,0.30
2018-12-16T01:19:46.641Z,0.30
2018-12-16T01:20:50.379Z,0.30
2018-12-16T01:21:54.134Z,0.30
2018-12-16T01:22:57.928Z,0.30
2018-12-16T01:24:01.641Z,0.30
2018-12-16T01:25:05.407Z,0.30
2018-12-16T01:26:09.147Z,0.30
2018-12-16T01:27:12.951Z,0.30
2018-12-16T01:28:16.692Z,0.30
2018-12-16T01:29:20.398Z,0.30
2018-12-16T01:30:24.158Z,0.30
2018-12-16T01:31:27.959Z,0.30
2018-12-16T01:32:31.739Z,0.30
2018-12-16T01:33:35.517Z,0.30
2018-12-16T01:34:39.306Z,0.30
2018-12-16T01:35:43.091Z,0.40
2018-12-16T01:36:46.809Z,0.30
2018-12-16T01:37:50.605Z,0.30
2018-12-16T01:38:54.423Z,0.30
2018-12-16T01:39:58.141Z,0.30
2018-12-16T01:41:01.882Z,0.30
2018-12-16T01:42:05.577Z,0.30
2018-12-16T01:43:09.454Z,0.30
2018-12-16T01:44:13.239Z,0.30
2018-12-16T01:45:16.968Z,0.30
2018-12-16T01:46:27.210Z,0.30
2018-12-16T01:47:30.995Z,0.30
2018-12-16T01:48:35.179Z,0.30
2018-12-16T01:49:38.916Z,0.30
2018-12-16T01:50:42.643Z,0.30
2018-12-16T01:51:46.542Z,0.30
2018-12-16T01:52:50.539Z,0.30
2018-12-16T01:53:54.320Z,0.30
2018-12-16T01:54:58.086Z,0.30
2018-12-16T01:56:01.860Z,0.40
2018-12-16T01:57:05.646Z,0.30
2018-12-16T01:58:09.387Z,0.30
2018-12-16T01:59:13.168Z,0.30
2018-12-16T02:00:17.029Z,0.30
2018-12-16T02:01:20.814Z,0.30
2018-12-16T02:02:24.576Z,0.30
2018-12-16T02:03:28.355Z,0.30
2018-12-16T02:04:32.143Z,0.30
2018-12-16T02:05:35.857Z,0.30
2018-12-16T02:06:39.543Z,0.30
2018-12-16T02:07:43.352Z,0.30
2018-12-16T02:08:47.081Z,0.30
2018-12-16T02:09:50.970Z,0.30
2018-12-16T02:10:54.826Z,0.30
2018-12-16T02:11:58.732Z,0.30
2018-12-16T02:13:02.570Z,0.30
2018-12-16T02:14:06.373Z,0.20
2018-12-16T02:15:10.126Z,0.20
2018-12-16T02:16:13.882Z,0.30
2018-12-16T02:17:17.667Z,0.30
2018-12-16T02:18:21.410Z,0.20
2018-12-16T02:19:25.142Z,0.20
2018-12-16T02:20:28.926Z,0.20
2018-12-16T02:21:32.721Z,0.20
2018-12-16T02:22:36.450Z,0.20
2018-12-16T02:23:40.198Z,0.20
2018-12-16T02:24:43.919Z,0.20
2018-12-16T02:25:47.804Z,0.20
2018-12-16T02:26:51.549Z,0.20
2018-12-16T02:27:55.288Z,0.20
2018-12-16T02:28:59.059Z,0.20
2018-12-16T02:30:02.754Z,0.30
2018-12-16T02:31:06.570Z,0.30
2018-12-16T02:32:10.318Z,0.20
2018-12-16T02:33:14.117Z,0.20
2018-12-16T02:34:17.850Z,0.20
2018-12-16T02:35:21.605Z,0.20
2018-12-16T02:36:25.386Z,0.20
2018-12-16T02:37:29.153Z,0.20
2018-12-16T02:38:32.898Z,0.20
2018-12-16T02:39:36.681Z,0.30
2018-12-16T02:40:40.453Z,0.20
2018-12-16T02:41:44.212Z,0.30
2018-12-16T02:42:48.194Z,0.30
2018-12-16T02:43:52.076Z,0.30
2018-12-16T02:44:55.827Z,0.30
2018-12-16T02:45:59.731Z,0.30
2018-12-16T02:47:03.582Z,0.30
2018-12-16T02:48:07.375Z,0.30
2018-12-16T02:49:11.097Z,0.30
2018-12-16T02:50:14.830Z,0.30
2018-12-16T02:51:18.571Z,0.30
2018-12-16T02:52:22.365Z,0.30
2018-12-16T02:53:26.209Z,0.30
2018-12-16T02:54:29.966Z,0.30
2018-12-16T02:55:33.699Z,0.30
2018-12-16T02:56:38.508Z,0.30
2018-12-16T02:57:42.252Z,0.30
2018-12-16T02:58:46.060Z,0.30
2018-12-16T02:59:49.815Z,0.30
2018-12-16T03:00:53.590Z,0.30
2018-12-16T03:01:57.374Z,0.30
2018-12-16T03:03:01.126Z,0.40
2018-12-16T03:04:04.793Z,0.40
2018-12-16T03:05:08.522Z,0.40
2018-12-16T03:06:12.238Z,0.40
2018-12-16T03:07:15.981Z,0.30
2018-12-16T03:08:19.838Z,0.30
2018-12-16T03:09:23.611Z,0.30
2018-12-16T03:10:27.412Z,0.30
2018-12-16T03:11:31.142Z,0.30
2018-12-16T03:12:34.841Z,0.30
2018-12-16T03:13:38.665Z,0.30
2018-12-16T03:14:42.542Z,0.30
2018-12-16T03:15:46.372Z,0.30
2018-12-16T03:16:50.093Z,0.20
2018-12-16T03:17:53.891Z,0.20
2018-12-16T03:18:57.658Z,0.20
2018-12-16T03:20:01.383Z,0.20
2018-12-16T03:21:05.095Z,0.20
2018-12-16T03:22:08.842Z,0.20
2018-12-16T03:23:12.730Z,0.20
2018-12-16T03:24:16.849Z,0.20
2018-12-16T03:25:20.589Z,0.20
2018-12-16T03:26:24.364Z,0.10
2018-12-16T03:27:28.881Z,0.10
2018-12-16T03:28:32.654Z,0.10
2018-12-16T03:29:36.358Z,0.10
2018-12-16T03:30:40.135Z,0.10
2018-12-16T03:31:50.226Z,0.10
2018-12-16T03:32:53.992Z,0.10
2018-12-16T03:33:57.775Z,0.10
2018-12-16T03:35:01.500Z,0.10
2018-12-16T03:36:05.318Z,0.00
2018-12-16T03:37:09.121Z,0.00
2018-12-16T03:38:12.887Z,0.10
2018-12-16T03:39:16.695Z,0.10
2018-12-16T03:40:20.528Z,0.10
2018-12-16T03:41:24.242Z,0.10
2018-12-16T03:42:28.009Z,0.10
2018-12-16T03:43:31.737Z,0.10
2018-12-16T03:44:35.612Z,0.10
2018-12-16T03:45:39.399Z,0.10
2018-12-16T03:46:43.229Z,0.10
2018-12-16T03:47:47.039Z,0.10
2018-12-16T03:48:50.937Z,0.00
2018-12-16T03:49:54.772Z,0.00
2018-12-16T03:50:58.508Z,0.00
2018-12-16T03:52:02.199Z,0.00
2018-12-16T03:53:05.873Z,0.00
2018-12-16T03:54:09.606Z,0.00
2018-12-16T03:55:13.391Z,0.00
2018-12-16T03:56:17.109Z,0.00
2018-12-16T03:57:20.818Z,0.10
2018-12-16T03:58:24.664Z,0.10
2018-12-16T03:59:28.371Z,0.00
2018-12-16T04:00:32.194Z,0.10
2018-12-16T04:01:35.934Z,0.00
2018-12-16T04:02:39.673Z,0.10
2018-12-16T04:03:43.423Z,0.10
2018-12-16T04:04:47.150Z,0.00
2018-12-16T04:05:50.964Z,0.00
2018-12-16T04:06:56.713Z,0.00
2018-12-16T04:08:41.942Z,0.10
2018-12-16T04:09:45.725Z,0.00
2018-12-16T04:10:49.531Z,0.00
2018-12-16T04:11:53.316Z,0.00
2018-12-16T04:12:57.115Z,0.00
2018-12-16T04:14:00.834Z,0.00
2018-12-16T04:15:07.058Z,0.00
2018-12-16T04:16:10.852Z,0.00
2018-12-16T04:17:14.673Z,0.00
2018-12-16T04:18:18.406Z,0.00
2018-12-16T04:19:22.179Z,0.00
2018-12-16T04:20:25.914Z,0.00
2018-12-16T04:21:29.635Z,0.00
2018-12-16T04:22:33.370Z,0.00
2018-12-16T04:23:37.106Z,0.00
2018-12-16T04:24:43.091Z,0.00
2018-12-16T04:25:46.823Z,0.00
2018-12-16T04:26:50.651Z,0.00
2018-12-16T04:27:54.270Z,0.00
2018-12-16T04:28:58.142Z,0.00
2018-12-16T04:30:01.896Z,0.00
2018-12-16T04:31:05.728Z,0.00
2018-12-16T04:32:09.481Z,0.00
2018-12-16T04:33:13.218Z,0.00
2018-12-16T04:34:17.157Z,0.00
2018-12-16T04:35:20.952Z,0.00
2018-12-16T04:36:24.709Z,0.00
2018-12-16T04:37:28.515Z,0.00
2018-12-16T04:38:32.250Z,-0.10
2018-12-16T04:39:36.239Z,0.00
2018-12-16T04:40:39.940Z,0.00
2018-12-16T04:41:43.775Z,-0.10
2018-12-16T04:42:47.549Z,0.00
2018-12-16T04:43:51.358Z,0.00
2018-12-16T04:44:55.130Z,-0.10
2018-12-16T04:45:58.874Z,-0.10
2018-12-16T04:47:02.596Z,-0.10
2018-12-16T04:48:06.456Z,-0.10
2018-12-16T04:49:11.254Z,-0.10
2018-12-16T04:50:15.326Z,0.00
2018-12-16T04:51:19.103Z,0.00
2018-12-16T04:52:22.881Z,0.00
2018-12-16T04:53:26.620Z,-0.10
2018-12-16T04:54:30.628Z,-0.10
2018-12-16T04:55:34.374Z,-0.10
2018-12-16T04:56:38.133Z,-0.10
2018-12-16T04:57:41.919Z,-0.10
2018-12-16T04:58:45.647Z,0.00
2018-12-16T04:59:49.501Z,0.00
2018-12-16T05:00:53.309Z,0.00
2018-12-16T05:01:57.111Z,-0.10
2018-12-16T05:03:00.697Z,0.00
2018-12-16T05:04:04.455Z,0.00
2018-12-16T05:05:08.325Z,0.00
2018-12-16T05:06:12.130Z,0.00
2018-12-16T05:07:17.103Z,0.00
2018-12-16T05:08:20.799Z,-0.10
2018-12-16T05:09:24.524Z,-0.10
2018-12-16T05:10:29.863Z,-0.10
2018-12-16T05:11:33.615Z,-0.10
2018-12-16T05:12:37.301Z,-0.10
2018-12-16T05:13:41.101Z,-0.10
2018-12-16T05:14:44.838Z,-0.10
2018-12-16T05:15:48.596Z,-0.10
2018-12-16T05:16:52.358Z,-0.10
2018-12-16T05:17:56.098Z,-0.10
2018-12-16T05:18:59.806Z,-0.10
2018-12-16T05:20:03.918Z,-0.10
2018-12-16T05:21:07.719Z,-0.10
2018-12-16T05:22:11.505Z,-0.10
2018-12-16T05:23:15.218Z,-0.10
2018-12-16T05:24:18.942Z,-0.10
2018-12-16T05:25:22.686Z,-0.10
2018-12-16T05:26:26.501Z,-0.10
2018-12-16T05:27:30.315Z,-0.10
2018-12-16T05:28:34.031Z,-0.10
2018-12-16T05:29:37.754Z,-0.10
2018-12-16T05:30:41.602Z,-0.10
2018-12-16T05:31:45.343Z,0.00
2018-12-16T05:32:49.103Z,-0.10
2018-12-16T05:33:52.965Z,0.00
2018-12-16T05:34:56.763Z,0.00
2018-12-16T05:36:00.853Z,0.00
2018-12-16T05:37:04.591Z,-0.10
2018-12-16T05:38:08.480Z,-0.10
2018-12-16T05:39:12.347Z,-0.10
2018-12-16T05:40:16.115Z,-0.10
2018-12-16T05:41:20.087Z,-0.10
2018-12-16T05:42:24.359Z,-0.10
2018-12-16T05:43:28.641Z,-0.10
2018-12-16T05:44:32.757Z,-0.10
2018-12-16T05:45:36.485Z,-0.10
2018-12-16T05:46:40.269Z,-0.10
2018-12-16T05:47:44.080Z,-0.10
2018-12-16T05:48:47.933Z,-0.10
2018-12-16T05:49:52.048Z,-0.10
2018-12-16T05:50:55.787Z,-0.10
2018-12-16T05:51:59.555Z,-0.10
2018-12-16T05:53:03.256Z,-0.10
2018-12-16T05:54:06.969Z,-0.10
2018-12-16T05:55:10.758Z,-0.10
2018-12-16T05:56:14.519Z,-0.10
2018-12-16T05:57:18.218Z,-0.10
2018-12-16T05:58:21.996Z,-0.10
2018-12-16T05:59:25.717Z,-0.10
2018-12-16T06:00:29.580Z,-0.10
2018-12-16T06:01:33.354Z,-0.10
2018-12-16T06:02:37.098Z,-0.10
2018-12-16T06:03:40.843Z,-0.10
2018-12-16T06:04:44.717Z,-0.10
2018-12-16T06:05:48.550Z,-0.10
2018-12-16T06:06:52.280Z,-0.10
2018-12-16T06:07:56.035Z,-0.10
2018-12-16T06:09:00.114Z,-0.10
2018-12-16T06:10:04.089Z,-0.10
2018-12-16T06:11:07.806Z,-0.10
2018-12-16T06:12:11.565Z,0.00
2018-12-16T06:13:15.343Z,0.00
2018-12-16T06:14:19.189Z,0.00
2018-12-16T06:15:22.910Z,0.00
2018-12-16T06:16:26.657Z,-0.10
2018-12-16T06:17:30.399Z,0.00
2018-12-16T06:18:34.197Z,-0.10
2018-12-16T06:19:38.008Z,-0.10
2018-12-16T06:20:41.746Z,-0.10
2018-12-16T06:21:45.599Z,-0.10
2018-12-16T06:22:49.325Z,-0.10
2018-12-16T06:23:55.706Z,-0.10
2018-12-16T06:24:58.956Z,-0.10
2018-12-16T06:26:02.712Z,-0.10
2018-12-16T06:27:06.498Z,-0.10
2018-12-16T06:28:10.210Z,-0.10
2018-12-16T06:29:13.894Z,-0.10
2018-12-16T06:30:18.602Z,-0.10
2018-12-16T06:31:22.355Z,-0.10
2018-12-16T06:32:26.010Z,-0.10
2018-12-16T06:33:29.829Z,-0.10
2018-12-16T06:34:33.632Z,-0.10
2018-12-16T06:35:37.466Z,-0.10
2018-12-16T06:36:41.190Z,-0.10
2018-12-16T06:37:44.979Z,-0.10
2018-12-16T06:38:49.052Z,0.00
2018-12-16T06:39:52.807Z,0.00
2018-12-16T06:40:56.500Z,0.00
2018-12-16T06:42:00.226Z,0.00
2018-12-16T06:43:03.933Z,-0.10
2018-12-16T06:44:07.775Z,-0.10
2018-12-16T06:45:11.580Z,-0.10
2018-12-16T06:46:15.381Z,-0.10
2018-12-16T06:47:19.148Z,0.00
2018-12-16T06:48:22.934Z,0.00
2018-12-16T06:49:26.724Z,-0.10
2018-12-16T06:50:30.592Z,0.00
2018-12-16T06:51:34.371Z,0.00
2018-12-16T06:52:38.130Z,0.00
2018-12-16T06:53:41.839Z,0.00
2018-12-16T06:54:45.592Z,0.00
2018-12-16T06:55:49.590Z,0.00
2018-12-16T06:56:53.277Z,0.00
2018-12-16T06:57:56.914Z,0.00
2018-12-16T06:59:00.647Z,0.10
2018-12-16T07:00:05.191Z,0.00
2018-12-16T07:01:12.221Z,0.00
2018-12-16T07:02:15.993Z,0.00
2018-12-16T07:03:19.766Z,0.00
2018-12-16T07:04:23.475Z,0.00
2018-12-16T07:05:27.238Z,0.00
2018-12-16T07:06:31.013Z,0.00
2018-12-16T07:07:34.733Z,0.00
2018-12-16T07:08:38.470Z,0.00
2018-12-16T07:09:42.269Z,0.00
2018-12-16T07:10:46.075Z,0.00
2018-12-16T07:11:49.811Z,0.00
2018-12-16T07:12:53.555Z,0.00
2018-12-16T07:13:57.325Z,0.00
2018-12-16T07:15:01.100Z,0.00
2018-12-16T07:16:04.862Z,0.00
2018-12-16T07:17:08.562Z,0.00
2018-12-16T07:18:12.385Z,0.00
2018-12-16T07:19:16.135Z,0.00
2018-12-16T07:20:19.938Z,0.00
2018-12-16T07:21:23.750Z,0.00
2018-12-16T07:22:27.585Z,0.00
2018-12-16T07:23:31.612Z,0.00
2018-12-16T07:24:35.357Z,0.00
2018-12-16T07:25:39.114Z,0.00
2018-12-16T07:26:43.156Z,0.10
2018-12-16T07:27:46.932Z,0.10
2018-12-16T07:28:50.685Z,0.10
2018-12-16T07:29:54.436Z,0.10
2018-12-16T07:30:58.189Z,0.10
2018-12-16T07:32:01.892Z,0.10
2018-12-16T07:33:05.694Z,0.10
2018-12-16T07:34:09.550Z,0.10
2018-12-16T07:35:13.478Z,0.10
2018-12-16T07:36:17.224Z,0.20
2018-12-16T07:37:21.115Z,0.20
2018-12-16T07:38:26.007Z,0.20
2018-12-16T07:39:29.779Z,0.20
2018-12-16T07:40:33.637Z,0.20
2018-12-16T07:41:37.427Z,0.10
2018-12-16T07:42:41.203Z,0.10
2018-12-16T07:43:45.034Z,0.10
2018-12-16T07:44:49.012Z,0.10
2018-12-16T07:45:52.752Z,0.20
2018-12-16T07:46:56.518Z,0.20
2018-12-16T07:48:00.333Z,0.20
2018-12-16T07:49:04.093Z,0.20
2018-12-16T07:50:08.712Z,0.20
2018-12-16T07:51:12.513Z,0.20
2018-12-16T07:52:16.306Z,0.20
2018-12-16T07:53:20.110Z,0.20
2018-12-16T07:54:23.818Z,0.20
2018-12-16T07:55:27.580Z,0.20
2018-12-16T07:56:31.318Z,0.20
2018-12-16T07:57:35.107Z,0.20
2018-12-16T07:58:38.897Z,0.20
2018-12-16T07:59:42.659Z,0.20
2018-12-16T08:00:46.407Z,0.30
2018-12-16T08:01:50.453Z,0.20
2018-12-16T08:02:54.220Z,0.20
2018-12-16T08:03:57.890Z,0.30
2018-12-16T08:05:01.567Z,0.20
2018-12-16T08:06:05.347Z,0.20
2018-12-16T08:07:09.147Z,0.20
2018-12-16T08:08:12.920Z,0.20
2018-12-16T08:09:16.783Z,0.20
2018-12-16T08:10:20.534Z,0.20
2018-12-16T08:11:24.408Z,0.20
2018-12-16T08:12:28.235Z,0.20
2018-12-16T08:13:31.968Z,0.20
2018-12-16T08:14:35.858Z,0.20
2018-12-16T08:15:39.600Z,0.20
2018-12-16T08:16:43.404Z,0.20
2018-12-16T08:17:47.096Z,0.20
2018-12-16T08:18:50.874Z,0.20
2018-12-16T08:19:54.599Z,0.30
2018-12-16T08:20:58.317Z,0.30
2018-12-16T08:22:08.457Z,0.30
2018-12-16T08:23:12.208Z,0.30
2018-12-16T08:24:22.939Z,0.30
2018-12-16T08:25:21.792Z,0.30
2018-12-16T08:26:25.542Z,0.30
2018-12-16T08:27:29.294Z,0.40
2018-12-16T08:28:33.103Z,0.40
2018-12-16T08:29:36.858Z,0.40
2018-12-16T08:30:40.637Z,0.40
2018-12-16T08:31:44.521Z,0.40
2018-12-16T08:32:48.338Z,0.40
2018-12-16T08:33:52.122Z,0.50
2018-12-16T08:34:55.839Z,0.50
2018-12-16T08:35:59.597Z,0.60
2018-12-16T08:37:03.455Z,0.60
2018-12-16T08:38:07.215Z,0.60
2018-12-16T08:39:11.260Z,0.60
2018-12-16T08:40:14.972Z,0.60
2018-12-16T08:41:18.777Z,0.60
2018-12-16T08:42:22.523Z,0.60
2018-12-16T08:43:26.177Z,0.70
2018-12-16T08:44:29.966Z,0.70
2018-12-16T08:45:33.818Z,0.70
2018-12-16T08:46:37.578Z,0.60
2018-12-16T08:47:41.333Z,0.60
2018-12-16T08:48:45.079Z,0.60
2018-12-16T08:49:48.834Z,0.60
2018-12-16T08:50:52.578Z,0.60
2018-12-16T08:51:56.291Z,0.60
2018-12-16T08:53:00.002Z,0.60
2018-12-16T08:54:03.773Z,0.60
2018-12-16T08:55:07.601Z,0.60
2018-12-16T08:56:12.398Z,0.60
2018-12-16T08:57:16.183Z,0.60
2018-12-16T08:58:19.988Z,0.60
2018-12-16T08:59:23.759Z,0.60
2018-12-16T09:00:27.628Z,0.60
2018-12-16T09:01:32.024Z,0.60
2018-12-16T09:02:35.859Z,0.60
2018-12-16T09:03:42.506Z,0.70
2018-12-16T09:04:46.247Z,0.70
2018-12-16T09:05:50.388Z,0.70
2018-12-16T09:06:54.370Z,0.70
2018-12-16T09:07:58.387Z,0.70
2018-12-16T09:09:02.367Z,0.70
2018-12-16T09:10:08.997Z,0.60
2018-12-16T09:11:12.711Z,0.70
2018-12-16T09:12:16.519Z,0.60
2018-12-16T09:13:20.421Z,0.70
2018-12-16T09:14:24.246Z,0.70
2018-12-16T09:15:27.982Z,0.70
2018-12-16T09:16:32.006Z,0.70
2018-12-16T09:17:35.794Z,0.70
2018-12-16T09:18:39.562Z,0.60
2018-12-16T09:19:43.356Z,0.70
2018-12-16T09:20:47.204Z,0.60
2018-12-16T09:21:51.175Z,0.60
2018-12-16T09:22:54.887Z,0.60
2018-12-16T09:23:58.725Z,0.60
2018-12-16T09:25:02.526Z,0.60
2018-12-16T09:26:06.530Z,0.70
2018-12-16T09:27:10.293Z,0.70
2018-12-16T09:28:14.034Z,0.70
2018-12-16T09:29:19.387Z,0.70
2018-12-16T09:30:23.344Z,0.70
2018-12-16T09:31:27.620Z,0.70
2018-12-16T09:32:31.401Z,0.70
2018-12-16T09:33:35.166Z,0.70
2018-12-16T09:34:38.997Z,0.70
2018-12-16T09:35:42.793Z,0.80
2018-12-16T09:36:46.583Z,0.80
2018-12-16T09:37:50.335Z,0.70
2018-12-16T09:38:54.151Z,0.70
2018-12-16T09:39:57.936Z,0.70
2018-12-16T09:41:01.723Z,0.70
2018-12-16T09:42:05.483Z,0.70
2018-12-16T09:43:09.231Z,0.70
2018-12-16T09:44:13.002Z,0.70
2018-12-16T09:45:16.795Z,0.70
2018-12-16T09:46:20.556Z,0.70
2018-12-16T09:47:24.466Z,0.70
2018-12-16T09:48:28.280Z,0.70
2018-12-16T09:49:32.080Z,0.70
2018-12-16T09:50:35.956Z,0.70
2018-12-16T09:51:39.726Z,0.70
2018-12-16T09:52:43.688Z,0.70
2018-12-16T09:53:47.512Z,0.60
2018-12-16T09:54:51.353Z,0.70
2018-12-16T09:55:55.133Z,0.70
2018-12-16T09:56:58.895Z,0.70
2018-12-16T09:58:02.655Z,0.70
2018-12-16T09:59:06.427Z,0.70
2018-12-16T10:00:11.152Z,0.70
2018-12-16T10:01:14.846Z,0.80
2018-12-16T10:02:18.583Z,0.70
2018-12-16T10:03:22.426Z,0.70
2018-12-16T10:04:26.151Z,0.60
2018-12-16T10:05:29.890Z,0.60
2018-12-16T10:06:33.682Z,0.60
2018-12-16T10:07:37.365Z,0.50
2018-12-16T10:08:41.140Z,0.50
2018-12-16T10:09:44.889Z,0.50
2018-12-16T10:10:48.694Z,0.50
2018-12-16T10:11:59.211Z,0.50
2018-12-16T10:13:02.927Z,0.50
2018-12-16T10:14:06.733Z,0.50
2018-12-16T10:15:10.437Z,0.60
2018-12-16T10:16:14.204Z,0.50
2018-12-16T10:17:17.901Z,0.60
2018-12-16T10:18:21.639Z,0.60
2018-12-16T10:19:25.396Z,0.60
2018-12-16T10:20:29.177Z,0.60
2018-12-16T10:21:33.125Z,0.50
2018-12-16T10:22:36.715Z,0.60
2018-12-16T10:23:40.488Z,0.60
2018-12-16T10:24:51.042Z,0.60
2018-12-16T10:25:50.123Z,0.60
2018-12-16T10:26:54.018Z,0.60
2018-12-16T10:27:57.721Z,0.60
2018-12-16T10:29:01.473Z,0.60
2018-12-16T10:30:07.008Z,0.60
2018-12-16T10:31:10.755Z,0.70
2018-12-16T10:32:14.515Z,0.70
2018-12-16T10:33:19.370Z,0.70
2018-12-16T10:34:23.095Z,0.70
2018-12-16T10:35:26.885Z,0.60
2018-12-16T10:36:30.618Z,0.70
2018-12-16T10:37:34.319Z,0.70
2018-12-16T10:38:38.054Z,0.70
2018-12-16T10:39:42.527Z,0.70
2018-12-16T10:40:46.413Z,0.70
2018-12-16T10:41:50.210Z,0.70
2018-12-16T10:42:53.931Z,0.80
2018-12-16T10:43:57.754Z,0.80
2018-12-16T10:45:01.542Z,0.80
2018-12-16T10:46:05.358Z,0.80
2018-12-16T10:47:09.177Z,0.80
2018-12-16T10:48:13.349Z,0.80
2018-12-16T10:49:17.280Z,0.80
2018-12-16T10:50:21.108Z,0.70
2018-12-16T10:51:24.887Z,0.80
2018-12-16T10:52:28.647Z,0.80
2018-12-16T10:53:33.627Z,0.80
2018-12-16T10:54:38.481Z,0.80
2018-12-16T10:55:42.318Z,0.80
2018-12-16T10:56:46.108Z,0.80
2018-12-16T10:57:50.109Z,0.80
2018-12-16T10:58:53.989Z,0.80
2018-12-16T10:59:57.824Z,0.70
2018-12-16T11:01:07.104Z,0.70
2018-12-16T11:02:10.905Z,0.70
2018-12-16T11:03:15.561Z,0.70
2018-12-16T11:04:19.413Z,0.70
2018-12-16T11:05:23.883Z,0.70
2018-12-16T11:06:27.609Z,0.70
2018-12-16T11:07:31.375Z,0.70
2018-12-16T11:08:36.872Z,0.70
2018-12-16T11:09:40.694Z,0.70
2018-12-16T11:10:44.513Z,0.70
2018-12-16T11:11:48.346Z,0.70
2018-12-16T11:12:52.275Z,0.70
2018-12-16T11:13:56.072Z,0.70
2018-12-16T11:14:59.963Z,0.60
2018-12-16T11:16:03.775Z,0.60
2018-12-16T11:17:07.528Z,0.60
2018-12-16T11:18:11.281Z,0.60
2018-12-16T11:19:15.017Z,0.60
2018-12-16T11:20:19.185Z,0.60
2018-12-16T11:21:23.199Z,0.60
2018-12-16T11:22:26.910Z,0.50
2018-12-16T11:23:30.675Z,0.60
2018-12-16T11:24:42.729Z,0.60
2018-12-16T11:25:49.577Z,0.60
2018-12-16T11:26:53.343Z,0.60
2018-12-16T11:27:57.241Z,0.70
2018-12-16T11:29:00.949Z,0.60
2018-12-16T11:30:05.503Z,0.60
2018-12-16T11:31:09.275Z,0.70
2018-12-16T11:32:13.086Z,0.70
2018-12-16T11:33:17.785Z,0.70
2018-12-16T11:34:21.618Z,0.60
2018-12-16T11:35:25.538Z,0.60
2018-12-16T11:36:29.329Z,0.60
2018-12-16T11:37:34.210Z,0.60
2018-12-16T11:38:38.050Z,0.60
2018-12-16T11:39:42.131Z,0.60
2018-12-16T11:40:45.906Z,0.60
2018-12-16T11:41:49.912Z,0.70
2018-12-16T11:42:53.668Z,0.60
2018-12-16T11:43:57.579Z,0.60
2018-12-16T11:45:01.921Z,0.60
2018-12-16T11:46:05.685Z,0.70
2018-12-16T11:47:09.503Z,0.60
2018-12-16T11:48:13.294Z,0.70
2018-12-16T11:49:17.018Z,0.70
2018-12-16T11:50:20.813Z,0.70
2018-12-16T11:51:25.617Z,0.70
2018-12-16T11:52:30.551Z,0.70
2018-12-16T11:53:34.915Z,0.70
2018-12-16T11:54:38.767Z,0.70
2018-12-16T11:55:42.583Z,0.70
2018-12-16T11:56:46.377Z,0.60
2018-12-16T11:57:50.115Z,0.60
2018-12-16T11:58:53.995Z,0.60
2018-12-16T11:59:57.810Z,0.70
2018-12-16T12:01:01.768Z,0.70
2018-12-16T12:02:06.714Z,0.70
2018-12-16T12:03:12.391Z,0.80
2018-12-16T12:04:18.009Z,0.80
2018-12-16T12:05:21.820Z,0.80
2018-12-16T12:06:26.296Z,0.80
2018-12-16T12:07:30.143Z,0.80
2018-12-16T12:08:33.930Z,0.80
2018-12-16T12:09:38.031Z,0.70
2018-12-16T12:10:41.871Z,0.70
2018-12-16T12:11:45.652Z,0.70
2018-12-16T12:12:49.435Z,0.70
2018-12-16T12:13:53.230Z,0.70
2018-12-16T12:14:57.145Z,0.70
2018-12-16T12:16:00.938Z,0.70
2018-12-16T12:17:04.797Z,0.70
2018-12-16T12:18:08.593Z,0.70
2018-12-16T12:19:12.716Z,0.70
2018-12-16T12:20:16.558Z,0.70
2018-12-16T12:21:20.341Z,0.70
2018-12-16T12:22:24.185Z,0.70
2018-12-16T12:23:28.030Z,0.80
2018-12-16T12:24:31.775Z,0.80
2018-12-16T12:25:36.466Z,0.80
2018-12-16T12:26:40.315Z,0.80
2018-12-16T12:27:44.254Z,0.70
2018-12-16T12:28:48.003Z,0.80
2018-12-16T12:29:51.837Z,0.80
2018-12-16T12:30:56.027Z,0.80
2018-12-16T12:31:59.797Z,0.80
2018-12-16T12:33:03.576Z,0.70
2018-12-16T12:34:07.358Z,0.80
2018-12-16T12:35:11.122Z,0.80
2018-12-16T12:36:14.962Z,0.80
2018-12-16T12:37:18.630Z,0.80
2018-12-16T12:38:22.455Z,0.80
2018-12-16T12:39:26.148Z,0.90
2018-12-16T12:40:29.916Z,0.90
2018-12-16T12:41:33.682Z,0.90
2018-12-16T12:42:37.549Z,0.90
2018-12-16T12:43:41.515Z,0.90
2018-12-16T12:44:45.278Z,0.90
2018-12-16T12:45:49.069Z,0.90
2018-12-16T12:46:52.891Z,0.90
2018-12-16T12:47:57.218Z,0.90
2018-12-16T12:49:00.966Z,0.90
2018-12-16T12:50:05.727Z,0.90
2018-12-16T12:51:09.555Z,0.90
2018-12-16T12:52:13.356Z,0.90
2018-12-16T12:53:17.248Z,0.90
2018-12-16T12:54:21.361Z,0.90
2018-12-16T12:55:26.938Z,0.90
2018-12-16T12:56:31.144Z,0.90
2018-12-16T12:57:34.925Z,0.90
2018-12-16T12:58:38.675Z,0.80
2018-12-16T12:59:42.556Z,0.70
2018-12-16T13:00:47.022Z,0.70
2018-12-16T13:01:50.928Z,0.70
2018-12-16T13:02:54.727Z,0.70
2018-12-16T13:03:58.476Z,0.70
2018-12-16T13:05:02.277Z,0.70
2018-12-16T13:06:06.063Z,0.70
2018-12-16T13:07:09.832Z,0.60
2018-12-16T13:08:13.641Z,0.60
2018-12-16T13:09:17.775Z,0.60
2018-12-16T13:10:21.578Z,0.60
2018-12-16T13:11:25.353Z,0.60
2018-12-16T13:12:29.124Z,0.60
2018-12-16T13:13:32.890Z,0.60
2018-12-16T13:14:36.717Z,0.60
2018-12-16T13:15:40.613Z,0.60
2018-12-16T13:16:44.447Z,0.60
2018-12-16T13:17:48.251Z,0.60
2018-12-16T13:18:52.028Z,0.60
2018-12-16T13:19:55.859Z,0.60
2018-12-16T13:20:59.612Z,0.60
2018-12-16T13:22:03.421Z,0.50
2018-12-16T13:23:07.826Z,0.50
2018-12-16T13:24:11.647Z,0.50
2018-12-16T13:25:33.604Z,0.50
2018-12-16T13:26:32.629Z,0.50
2018-12-16T13:27:36.392Z,0.50
2018-12-16T13:28:40.123Z,0.50
2018-12-16T13:29:43.994Z,0.50
2018-12-16T13:30:47.730Z,0.60
2018-12-16T13:31:51.594Z,0.50
2018-12-16T13:32:55.321Z,0.50
2018-12-16T13:33:59.038Z,0.50
2018-12-16T13:35:02.912Z,0.60
2018-12-16T13:36:09.715Z,0.50
2018-12-16T13:37:13.460Z,0.50
2018-12-16T13:38:17.212Z,0.60
2018-12-16T13:39:21.049Z,0.60
2018-12-16T13:40:24.845Z,0.60
2018-12-16T13:41:28.675Z,0.60
2018-12-16T13:42:32.533Z,0.60
2018-12-16T13:43:36.498Z,0.60
2018-12-16T13:44:40.275Z,0.60
2018-12-16T13:45:44.235Z,0.60
2018-12-16T13:46:48.138Z,0.60
2018-12-16T13:47:51.916Z,0.60
2018-12-16T13:48:55.837Z,0.60
2018-12-16T13:49:59.654Z,0.60
2018-12-16T13:51:03.633Z,0.50
2018-12-16T13:52:07.029Z,0.50
2018-12-16T13:53:10.813Z,0.50
2018-12-16T13:54:14.561Z,0.50
2018-12-16T13:55:18.325Z,0.40
2018-12-16T13:56:22.056Z,0.40
2018-12-16T13:57:25.846Z,0.40
2018-12-16T13:58:29.658Z,0.40
2018-12-16T13:59:33.420Z,0.40
2018-12-16T14:00:37.187Z,0.50
2018-12-16T14:01:40.948Z,0.50
2018-12-16T14:02:44.680Z,0.40
2018-12-16T14:03:48.501Z,0.40
2018-12-16T14:04:52.462Z,0.40
2018-12-16T14:05:56.318Z,0.40
2018-12-16T14:07:00.107Z,0.40
2018-12-16T14:08:03.834Z,0.40
2018-12-16T14:09:07.634Z,0.40